Time;durP1;ratioP1;P1;durP2;ratioP2;P2;SDS_P1;SDS_P2;PMS_P1;PMS_P2;Temp;Humidity;BMP_temperature;BMP_pressure;BME280_temperature;BME280_humidity;BME280_pressure;Samples;Min_cycle;Max_cycle;Signal;HPM_P1;HPM_P2
2021/08/19 00:01:23;;;;;;;2.00;1.50;;;25.90;54.90;;;;;;4134178;28;20053;-52
2021/08/19 00:03:26;;;;;;;1.88;1.40;;;25.90;55.00;;;;;;4134123;28;20079;-53
2021/08/19 00:05:28;;;;;;;1.95;1.30;;;25.90;55.00;;;;;;4134093;28;20046;-52
2021/08/19 00:07:30;;;;;;;1.48;1.13;;;25.90;55.00;;;;;;4134138;28;20042;-54
2021/08/19 00:09:32;;;;;;;1.50;1.33;;;25.90;55.00;;;;;;4134135;28;20113;-52
2021/08/19 00:11:34;;;;;;;2.35;1.17;;;25.90;54.90;;;;;;4134127;28;20059;-53
2021/08/19 00:13:37;;;;;;;1.92;1.20;;;25.90;55.00;;;;;;4134058;28;20050;-52
2021/08/19 00:15:39;;;;;;;1.45;1.25;;;25.90;54.90;;;;;;4133904;28;20047;-54
2021/08/19 00:17:42;;;;;;;2.33;1.60;;;25.90;54.90;;;;;;4133754;28;20058;-54
2021/08/19 00:19:44;;;;;;;3.05;1.80;;;25.90;55.00;;;;;;4133955;28;20074;-54
2021/08/19 00:21:46;;;;;;;2.35;2.15;;;25.90;55.00;;;;;;4134007;28;20047;-53
2021/08/19 00:23:48;;;;;;;2.20;1.67;;;25.90;55.00;;;;;;4133830;28;20055;-54
2021/08/19 00:25:50;;;;;;;2.15;1.52;;;25.90;55.10;;;;;;4132931;28;20082;-54
2021/08/19 00:27:52;;;;;;;4.13;1.85;;;25.90;55.10;;;;;;4133850;28;20090;-52
2021/08/19 00:29:54;;;;;;;2.40;1.65;;;25.90;55.10;;;;;;4133827;28;20054;-52
2021/08/19 00:31:56;;;;;;;3.90;1.73;;;25.90;55.10;;;;;;4133864;28;20061;-53
2021/08/19 00:33:58;;;;;;;4.65;2.30;;;25.90;55.10;;;;;;4133935;28;20053;-53
2021/08/19 00:36:00;;;;;;;3.65;2.10;;;25.90;55.20;;;;;;4133851;28;20046;-53
2021/08/19 00:38:02;;;;;;;2.63;1.73;;;25.90;55.20;;;;;;4133590;28;20053;-54
2021/08/19 00:40:05;;;;;;;3.88;2.15;;;25.80;55.20;;;;;;4133734;28;20054;-53
2021/08/19 00:42:07;;;;;;;2.72;1.90;;;25.80;55.20;;;;;;4133529;28;20051;-54
2021/08/19 00:44:12;;;;;;;4.03;1.95;;;25.90;55.30;;;;;;4133732;28;20139;-53
2021/08/19 00:46:29;;;;;;;5.30;2.10;;;25.80;55.20;;;;;;4133735;28;20076;-52
2021/08/19 00:48:31;;;;;;;2.08;1.70;;;25.80;55.30;;;;;;4133623;28;20078;-53
2021/08/19 00:50:34;;;;;;;3.30;1.70;;;25.90;55.30;;;;;;4133556;28;20054;-52
2021/08/19 00:52:36;;;;;;;3.65;1.73;;;25.90;55.30;;;;;;4133334;28;20058;-52
2021/08/19 00:54:39;;;;;;;3.28;1.60;;;25.80;55.30;;;;;;4133748;28;20075;-52
2021/08/19 00:56:41;;;;;;;3.72;1.70;;;25.80;55.30;;;;;;4133746;28;20047;-52
2021/08/19 00:58:43;;;;;;;2.33;1.77;;;25.80;55.40;;;;;;4133543;28;20055;-53
2021/08/19 01:00:46;;;;;;;3.33;1.70;;;25.80;55.40;;;;;;4133645;28;20047;-51
2021/08/19 01:02:50;;;;;;;2.90;1.80;;;25.80;55.40;;;;;;4133636;28;20093;-54
2021/08/19 01:04:53;;;;;;;2.70;1.75;;;25.80;55.40;;;;;;4133595;28;20050;-54
2021/08/19 01:06:55;;;;;;;3.30;1.70;;;25.80;55.50;;;;;;4133764;28;20057;-53
2021/08/19 01:08:57;;;;;;;2.35;1.50;;;25.80;55.50;;;;;;4133648;28;20050;-53
2021/08/19 01:10:59;;;;;;;2.38;2.05;;;25.80;55.50;;;;;;4133682;28;20051;-51
2021/08/19 01:13:01;;;;;;;2.08;1.50;;;25.80;55.50;;;;;;4133532;28;20057;-52
2021/08/19 01:15:04;;;;;;;3.28;1.30;;;25.80;55.50;;;;;;4133331;28;20074;-52
2021/08/19 01:17:08;;;;;;;2.10;1.45;;;25.80;55.50;;;;;;4125539;28;20113;-54
2021/08/19 01:19:15;;;;;;;1.85;1.30;;;25.80;55.50;;;;;;4133698;28;20047;-53
2021/08/19 01:21:17;;;;;;;2.80;1.58;;;25.80;55.50;;;;;;4133394;28;20043;-53
2021/08/19 01:23:19;;;;;;;1.73;1.40;;;25.80;55.50;;;;;;4133529;28;20058;-54
2021/08/19 01:25:21;;;;;;;2.25;1.60;;;25.80;55.50;;;;;;4133416;28;20051;-51
2021/08/19 01:27:23;;;;;;;2.08;1.25;;;25.80;55.50;;;;;;4133521;28;20051;-54
2021/08/19 01:29:25;;;;;;;1.95;1.13;;;25.80;55.50;;;;;;4133488;28;20054;-54
2021/08/19 01:31:27;;;;;;;2.08;1.30;;;25.70;55.40;;;;;;4133526;28;20135;-52
2021/08/19 01:33:30;;;;;;;2.20;1.40;;;25.70;55.40;;;;;;4133255;28;20047;-54
2021/08/19 01:35:32;;;;;;;1.55;1.08;;;25.70;55.40;;;;;;4133262;28;20054;-54
2021/08/19 01:37:34;;;;;;;2.10;1.23;;;25.70;55.30;;;;;;4135842;28;20055;-54
2021/08/19 01:39:37;;;;;;;1.70;1.10;;;25.70;55.30;;;;;;4136564;28;20049;-54
2021/08/19 01:41:39;;;;;;;2.30;1.00;;;25.70;55.20;;;;;;4136673;28;20075;-54
2021/08/19 01:43:42;;;;;;;3.58;1.20;;;25.70;55.10;;;;;;4136404;28;20081;-52
2021/08/19 01:45:44;;;;;;;2.05;1.30;;;25.70;55.10;;;;;;4136303;28;20043;-54
2021/08/19 01:47:47;;;;;;;1.73;1.45;;;25.70;55.10;;;;;;4136685;28;20047;-52
2021/08/19 01:49:49;;;;;;;2.45;1.10;;;25.70;55.00;;;;;;4136366;28;20074;-48
2021/08/19 01:51:52;;;;;;;2.55;1.00;;;25.70;55.00;;;;;;4136375;28;20043;-54
2021/08/19 01:53:54;;;;;;;2.10;1.20;;;25.70;55.00;;;;;;4136335;28;20106;-51
2021/08/19 01:55:57;;;;;;;1.65;1.00;;;25.70;54.90;;;;;;4136464;28;20047;-54
2021/08/19 01:57:59;;;;;;;2.47;1.10;;;25.70;54.90;;;;;;4136279;28;20082;-50
2021/08/19 02:00:05;;;;;;;1.45;1.00;;;25.70;54.90;;;;;;4136203;28;20049;-48
2021/08/19 02:02:07;;;;;;;2.58;1.10;;;25.70;54.90;;;;;;4136140;28;20110;-50
2021/08/19 02:04:10;;;;;;;1.85;1.15;;;25.70;54.90;;;;;;4136315;28;20046;-50
2021/08/19 02:06:12;;;;;;;2.13;1.38;;;25.70;54.90;;;;;;4136070;28;20065;-50
2021/08/19 02:08:15;;;;;;;2.35;1.17;;;25.70;54.80;;;;;;4136124;28;20054;-53
2021/08/19 02:10:17;;;;;;;1.70;1.52;;;25.70;54.80;;;;;;4136285;28;20050;-50
2021/08/19 02:12:19;;;;;;;3.47;2.05;;;25.60;54.80;;;;;;4136253;28;20047;-51
2021/08/19 02:14:21;;;;;;;2.75;1.52;;;25.70;54.80;;;;;;4135799;28;20098;-50
2021/08/19 02:16:23;;;;;;;3.38;1.40;;;25.60;54.80;;;;;;4135934;28;20115;-51
2021/08/19 02:18:26;;;;;;;1.98;1.20;;;25.70;54.80;;;;;;4136062;28;20042;-51
2021/08/19 02:20:28;;;;;;;2.35;1.30;;;25.60;55.30;;;;;;4135769;28;20050;-50
2021/08/19 02:22:30;;;;;;;4.63;1.20;;;25.70;54.70;;;;;;4135885;28;20051;-50
2021/08/19 02:24:32;;;;;;;1.92;1.35;;;25.70;54.80;;;;;;4136087;28;20054;-50
2021/08/19 02:26:34;;;;;;;2.08;1.33;;;25.60;54.80;;;;;;4135945;28;20058;-50
2021/08/19 02:28:36;;;;;;;1.23;1.10;;;25.60;54.70;;;;;;4135810;28;20051;-48
2021/08/19 02:30:38;;;;;;;2.13;1.45;;;25.70;54.70;;;;;;4135701;28;20050;-50
2021/08/19 02:32:40;;;;;;;1.80;1.38;;;25.60;54.70;;;;;;4135809;28;20053;-50
2021/08/19 02:34:43;;;;;;;1.80;1.35;;;25.60;54.60;;;;;;4135782;28;20053;-49
2021/08/19 02:36:45;;;;;;;1.42;1.20;;;25.60;54.60;;;;;;4135892;28;20047;-48
2021/08/19 02:38:47;;;;;;;1.63;1.17;;;25.60;54.60;;;;;;4135564;28;20047;-50
2021/08/19 02:40:49;;;;;;;2.45;1.40;;;25.60;54.50;;;;;;4135582;28;20046;-48
2021/08/19 02:42:51;;;;;;;1.48;1.10;;;25.60;54.40;;;;;;4135640;28;20059;-47
2021/08/19 02:44:53;;;;;;;1.10;1.00;;;25.60;54.40;;;;;;4135638;28;20055;-49
2021/08/19 02:46:55;;;;;;;1.40;1.23;;;25.60;54.40;;;;;;4135593;28;20046;-51
2021/08/19 02:48:57;;;;;;;1.45;1.10;;;25.60;54.40;;;;;;4134590;28;20059;-48
2021/08/19 02:50:59;;;;;;;1.67;1.25;;;25.60;54.30;;;;;;4135560;28;20051;-48
2021/08/19 02:53:01;;;;;;;1.70;0.80;;;25.60;54.30;;;;;;4135401;28;20061;-52
2021/08/19 02:55:05;;;;;;;1.40;1.30;;;25.60;54.20;;;;;;4118750;29;20086;-50
2021/08/19 02:57:07;;;;;;;1.08;0.90;;;25.50;54.20;;;;;;4135623;28;20047;-51
2021/08/19 02:59:09;;;;;;;1.50;1.10;;;25.50;54.20;;;;;;4135489;28;20047;-48
2021/08/19 03:01:11;;;;;;;2.42;1.45;;;25.50;54.10;;;;;;4135186;28;20046;-49
2021/08/19 03:03:13;;;;;;;1.05;0.98;;;25.50;54.00;;;;;;4135449;28;20089;-51
2021/08/19 03:05:15;;;;;;;2.28;1.40;;;25.50;54.00;;;;;;4135286;28;20054;-55
2021/08/19 03:07:18;;;;;;;2.33;1.13;;;25.50;53.90;;;;;;4135430;28;20050;-52
2021/08/19 03:09:20;;;;;;;2.97;0.98;;;25.50;53.90;;;;;;4135201;28;20047;-53
2021/08/19 03:11:22;;;;;;;1.85;1.10;;;25.50;53.90;;;;;;4135256;28;20050;-54
2021/08/19 03:13:24;;;;;;;2.20;1.10;;;25.50;53.90;;;;;;4135156;28;20080;-47
2021/08/19 03:15:26;;;;;;;2.20;1.60;;;25.50;53.80;;;;;;4135035;28;20046;-52
2021/08/19 03:17:29;;;;;;;3.38;1.17;;;25.50;53.70;;;;;;4135154;28;20058;-49
2021/08/19 03:19:31;;;;;;;1.80;1.20;;;25.50;53.70;;;;;;4135316;28;20074;-48
2021/08/19 03:21:33;;;;;;;1.33;1.10;;;25.40;53.60;;;;;;4135116;28;20082;-48
2021/08/19 03:23:36;;;;;;;1.92;1.40;;;25.40;53.60;;;;;;4134987;28;20059;-49
2021/08/19 03:25:38;;;;;;;1.60;1.48;;;25.40;53.50;;;;;;4134880;28;20074;-50
2021/08/19 03:27:40;;;;;;;1.88;1.48;;;25.40;53.50;;;;;;4134886;28;20082;-51
2021/08/19 03:29:42;;;;;;;1.75;1.15;;;25.50;53.40;;;;;;4134865;28;20078;-51
2021/08/19 03:31:44;;;;;;;2.10;1.40;;;25.40;53.30;;;;;;4134668;28;20047;-54
2021/08/19 03:33:46;;;;;;;2.33;1.50;;;25.40;53.20;;;;;;4134890;28;20051;-51
2021/08/19 03:35:48;;;;;;;2.88;1.52;;;25.40;53.10;;;;;;4134775;28;20058;-53
2021/08/19 03:37:50;;;;;;;1.60;1.50;;;25.40;53.00;;;;;;4134683;28;20049;-53
2021/08/19 03:39:52;;;;;;;7.13;1.60;;;25.40;53.10;;;;;;4134996;28;20047;-54
2021/08/19 03:41:54;;;;;;;3.42;1.60;;;25.40;53.10;;;;;;4134855;28;20377;-53
2021/08/19 03:43:56;;;;;;;2.10;1.75;;;25.40;53.10;;;;;;4134861;28;20051;-54
2021/08/19 03:45:58;;;;;;;3.08;1.67;;;25.40;53.10;;;;;;4134403;28;20051;-54
2021/08/19 03:48:00;;;;;;;2.53;2.03;;;25.40;53.00;;;;;;4134737;28;20051;-51
2021/08/19 03:50:05;;;;;;;2.53;2.10;;;25.40;52.90;;;;;;4134667;28;20097;-50
2021/08/19 03:52:07;;;;;;;2.22;2.00;;;25.40;52.80;;;;;;4134600;28;20134;-49
2021/08/19 03:54:09;;;;;;;2.33;1.90;;;25.40;52.80;;;;;;4132653;28;20054;-51
2021/08/19 03:56:11;;;;;;;2.08;1.88;;;25.40;52.70;;;;;;4134407;28;20047;-49
2021/08/19 03:58:13;;;;;;;2.13;1.90;;;25.40;52.60;;;;;;4134593;28;20055;-49
2021/08/19 04:00:15;;;;;;;2.95;2.65;;;25.40;52.60;;;;;;4118514;28;20047;-52
2021/08/19 04:02:17;;;;;;;4.00;2.15;;;25.40;52.50;;;;;;4118365;29;20071;-50
2021/08/19 04:04:20;;;;;;;3.55;1.90;;;25.40;52.40;;;;;;4118220;29;20048;-48
2021/08/19 04:06:22;;;;;;;3.88;2.33;;;25.40;52.40;;;;;;4126988;28;20054;-51
2021/08/19 04:08:25;;;;;;;4.97;2.10;;;25.40;52.30;;;;;;4134393;28;20050;-53
2021/08/19 04:10:27;;;;;;;3.13;2.60;;;25.40;52.40;;;;;;4134299;28;20050;-48
2021/08/19 04:12:29;;;;;;;4.43;2.22;;;25.40;52.40;;;;;;4134225;28;20050;-50
2021/08/19 04:14:31;;;;;;;2.65;2.00;;;25.40;52.50;;;;;;4134365;28;20103;-50
2021/08/19 04:16:33;;;;;;;2.90;2.22;;;25.40;52.30;;;;;;4134322;28;20071;-48
2021/08/19 04:18:36;;;;;;;3.10;2.45;;;25.40;52.40;;;;;;4134163;28;20054;-51
2021/08/19 04:20:38;;;;;;;2.10;1.85;;;25.40;52.30;;;;;;4133260;28;20115;-47
2021/08/19 04:22:40;;;;;;;4.07;2.13;;;25.40;52.30;;;;;;4134181;28;20051;-51
2021/08/19 04:24:42;;;;;;;2.47;2.00;;;25.30;52.20;;;;;;4134099;28;20070;-50
2021/08/19 04:26:43;;;;;;;3.75;2.53;;;25.40;52.20;;;;;;4133786;28;20155;-48
2021/08/19 04:28:46;;;;;;;4.00;2.83;;;25.40;52.20;;;;;;4134089;28;20057;-52
2021/08/19 04:30:48;;;;;;;3.45;2.58;;;25.40;52.20;;;;;;4134114;28;20055;-49
2021/08/19 04:32:49;;;;;;;5.18;3.42;;;25.40;52.20;;;;;;4133975;28;20074;-49
2021/08/19 04:34:52;;;;;;;7.00;4.05;;;25.40;52.20;;;;;;4134086;28;20053;-51
2021/08/19 04:36:54;;;;;;;8.70;4.03;;;25.30;52.10;;;;;;4134145;28;20057;-51
2021/08/19 04:38:56;;;;;;;4.53;3.03;;;25.40;52.10;;;;;;4134124;28;20106;-49
2021/08/19 04:40:58;;;;;;;5.22;3.40;;;25.30;52.00;;;;;;4133981;28;20061;-47
2021/08/19 04:43:00;;;;;;;6.78;3.70;;;25.40;51.90;;;;;;4134060;28;20051;-51
2021/08/19 04:45:02;;;;;;;5.05;3.20;;;25.30;51.90;;;;;;4133866;28;20097;-49
2021/08/19 04:47:05;;;;;;;6.38;3.40;;;25.30;51.90;;;;;;4133716;28;20055;-51
2021/08/19 04:49:07;;;;;;;10.40;3.83;;;25.30;51.90;;;;;;4133500;28;20058;-49
2021/08/19 04:51:09;;;;;;;5.18;3.78;;;25.30;52.00;;;;;;4133639;28;20051;-53
2021/08/19 04:53:11;;;;;;;6.93;3.90;;;25.30;51.90;;;;;;4133339;28;20051;-55
2021/08/19 04:55:13;;;;;;;4.47;3.10;;;25.40;51.80;;;;;;4133597;28;20047;-55
2021/08/19 04:57:15;;;;;;;6.68;3.38;;;25.40;51.80;;;;;;4133686;28;20082;-53
2021/08/19 04:59:17;;;;;;;8.02;3.58;;;25.30;51.80;;;;;;4133760;28;20074;-51
2021/08/19 05:01:19;;;;;;;4.63;3.17;;;25.30;51.70;;;;;;4133288;28;20047;-53
2021/08/19 05:03:21;;;;;;;5.97;3.72;;;25.30;51.60;;;;;;4133661;28;20111;-52
2021/08/19 05:05:23;;;;;;;5.15;3.63;;;25.40;51.70;;;;;;4133732;28;20078;-49
2021/08/19 05:07:26;;;;;;;6.25;3.53;;;25.30;51.70;;;;;;4133138;28;20086;-50
2021/08/19 05:09:28;;;;;;;7.00;3.92;;;25.30;51.60;;;;;;4133457;28;20050;-52
2021/08/19 05:11:30;;;;;;;3.83;3.00;;;25.30;51.70;;;;;;4132933;28;20050;-51
2021/08/19 05:13:32;;;;;;;4.43;3.30;;;25.30;51.60;;;;;;4133116;28;20046;-52
2021/08/19 05:15:34;;;;;;;5.28;3.47;;;25.30;51.50;;;;;;4133362;28;20057;-54
2021/08/19 05:17:36;;;;;;;5.90;3.75;;;25.30;51.60;;;;;;4132995;28;20051;-49
2021/08/19 05:19:38;;;;;;;5.43;3.20;;;25.30;51.50;;;;;;4133342;28;20050;-50
2021/08/19 05:21:40;;;;;;;4.57;3.25;;;25.20;51.30;;;;;;4132881;28;20051;-51
2021/08/19 05:23:42;;;;;;;4.78;3.25;;;25.30;51.50;;;;;;4133282;28;20051;-50
2021/08/19 05:25:44;;;;;;;6.22;3.60;;;25.30;51.50;;;;;;4133192;28;20050;-52
2021/08/19 05:27:46;;;;;;;9.20;3.80;;;25.30;51.50;;;;;;4133119;28;20078;-49
2021/08/19 05:29:48;;;;;;;9.75;4.18;;;25.30;51.60;;;;;;4133297;28;20051;-54
2021/08/19 05:31:50;;;;;;;10.93;5.10;;;25.30;51.40;;;;;;4133249;28;20051;-47
2021/08/19 05:33:54;;;;;;;8.40;4.45;;;24.80;51.80;;;;;;4133068;28;20102;-47
2021/08/19 05:35:56;;;;;;;10.80;5.10;;;24.50;52.50;;;;;;4132897;28;20043;-50
2021/08/19 05:37:58;;;;;;;9.50;4.93;;;24.40;53.40;;;;;;4132668;28;20047;-45
2021/08/19 05:40:00;;;;;;;7.85;4.63;;;24.40;53.50;;;;;;4130204;28;20047;-52
2021/08/19 05:42:02;;;;;;;8.60;5.05;;;24.10;53.60;;;;;;4133526;28;20060;-53
2021/08/19 05:44:04;;;;;;;10.02;4.35;;;24.00;54.20;;;;;;4133370;28;20054;-45
2021/08/19 05:46:07;;;;;;;8.15;4.47;;;24.10;53.50;;;;;;4127023;28;20051;-46
2021/08/19 05:48:09;;;;;;;7.72;4.75;;;24.20;53.10;;;;;;4133079;28;20051;-46
2021/08/19 05:50:11;;;;;;;5.57;4.15;;;24.30;53.20;;;;;;4132907;28;20050;-44
2021/08/19 05:52:16;;;;;;;7.22;4.72;;;24.20;52.90;;;;;;4132799;28;20054;-47
2021/08/19 05:54:18;;;;;;;11.10;4.40;;;24.20;53.20;;;;;;4132762;28;20078;-45
2021/08/19 05:56:20;;;;;;;10.77;3.83;;;24.20;52.90;;;;;;4133062;28;20531;-48
2021/08/19 05:58:22;;;;;;;5.53;3.50;;;24.30;52.90;;;;;;4133201;28;20050;-50
2021/08/19 06:00:24;;;;;;;9.00;4.07;;;24.40;53.20;;;;;;4131831;28;20057;-48
2021/08/19 06:02:26;;;;;;;15.90;4.53;;;24.40;52.60;;;;;;4132615;28;20078;-50
2021/08/19 06:04:28;;;;;;;7.55;4.07;;;24.30;52.90;;;;;;4132610;28;20051;-47
2021/08/19 06:06:30;;;;;;;11.68;6.25;;;24.30;52.90;;;;;;4132567;28;20074;-49
2021/08/19 06:08:32;;;;;;;13.30;7.78;;;24.10;52.70;;;;;;4132603;28;20055;-47
2021/08/19 06:10:34;;;;;;;10.68;6.65;;;24.10;52.70;;;;;;4132797;28;20435;-51
2021/08/19 06:12:37;;;;;;;10.40;6.03;;;23.90;52.90;;;;;;4132569;28;20061;-48
2021/08/19 06:14:39;;;;;;;6.50;4.75;;;23.90;53.10;;;;;;4132294;28;20050;-46
2021/08/19 06:16:41;;;;;;;9.82;4.65;;;23.90;52.70;;;;;;4132312;28;20061;-51
2021/08/19 06:18:43;;;;;;;10.20;4.85;;;23.50;53.50;;;;;;4132472;28;20102;-47
2021/08/19 06:20:45;;;;;;;10.30;4.57;;;23.60;53.70;;;;;;4132608;28;20047;-48
2021/08/19 06:22:47;;;;;;;4.03;3.50;;;23.60;53.20;;;;;;4133625;28;20057;-49
2021/08/19 06:24:50;;;;;;;10.77;4.53;;;23.60;53.20;;;;;;4135399;28;20051;-50
2021/08/19 06:26:52;;;;;;;7.38;4.53;;;23.70;53.10;;;;;;4135350;28;20058;-51
2021/08/19 06:28:54;;;;;;;8.77;4.20;;;23.70;53.30;;;;;;4135305;28;20061;-50
2021/08/19 06:30:56;;;;;;;10.35;5.40;;;23.50;53.70;;;;;;4118105;28;20079;-48
2021/08/19 06:32:58;;;;;;;8.90;5.00;;;23.60;53.70;;;;;;4135524;28;20047;-49
2021/08/19 06:35:00;;;;;;;9.13;5.32;;;23.60;53.80;;;;;;4134445;28;20054;-49
2021/08/19 06:37:03;;;;;;;7.05;4.88;;;23.60;53.70;;;;;;4135238;28;20073;-47
2021/08/19 06:39:05;;;;;;;7.03;5.00;;;23.60;53.60;;;;;;4134850;28;20047;-48
2021/08/19 06:41:07;;;;;;;7.50;4.47;;;23.80;53.50;;;;;;4135071;28;20047;-51
2021/08/19 06:43:09;;;;;;;9.45;4.55;;;23.90;53.00;;;;;;4135338;28;20051;-46
2021/08/19 06:45:12;;;;;;;6.70;4.65;;;23.90;53.20;;;;;;4135375;28;20050;-50
2021/08/19 06:47:14;;;;;;;9.75;4.40;;;23.90;52.90;;;;;;4135005;28;20054;-49
2021/08/19 08:48:22;;;;;;;51.63;22.25;;;;;;;;;;4235236;27;1386081;-51
2021/08/19 08:50:25;;;;;;;35.08;15.77;;;;;;;;;;4264408;27;20110;-47
2021/08/19 15:20:02;;;;;;;17.85;7.05;;;25.20;47.90;;;;;;4119168;27;20164;-64
2021/08/19 15:22:07;;;;;;;13.65;5.18;;;25.40;47.30;;;;;;4184667;28;20128;-62
2021/08/19 15:24:09;;;;;;;13.40;6.10;;;25.40;47.30;;;;;;4212035;28;20071;-60
2021/08/19 15:26:11;;;;;;;15.93;6.05;;;25.40;47.30;;;;;;4212281;28;20049;-60
2021/08/19 15:28:13;;;;;;;33.85;9.20;;;25.40;47.60;;;;;;4211576;28;20109;-60
2021/08/19 15:30:17;;;;;;;137.10;29.88;;;25.30;46.70;;;;;;4211263;28;20048;-60
2021/08/19 15:32:19;;;;;;;111.45;27.73;;;25.30;46.40;;;;;;4211010;28;20067;-61
2021/08/19 15:34:21;;;;;;;94.72;22.33;;;25.30;47.00;;;;;;4211642;28;20071;-60
2021/08/19 15:36:23;;;;;;;110.35;24.73;;;25.30;46.70;;;;;;4212113;28;20045;-60
2021/08/19 15:38:25;;;;;;;102.80;24.25;;;25.30;47.50;;;;;;4212022;28;20071;-58
2021/08/19 15:40:28;;;;;;;90.40;22.70;;;25.30;46.80;;;;;;4212288;28;20074;-58
2021/08/19 15:42:30;;;;;;;83.68;21.40;;;25.40;47.60;;;;;;4212228;28;20045;-59
2021/08/19 15:44:32;;;;;;;85.20;21.23;;;25.40;47.30;;;;;;4212010;28;20072;-58
2021/08/19 15:46:34;;;;;;;81.45;21.13;;;25.50;47.30;;;;;;4211999;28;20045;-58
2021/08/19 15:48:41;;;;;;;69.00;20.17;;;25.50;47.30;;;;;;4211994;28;20075;-58
2021/08/19 15:50:43;;;;;;;78.90;23.27;;;25.60;47.20;;;;;;4211941;28;20049;-58
2021/08/19 15:52:44;;;;;;;68.88;19.77;;;25.60;47.20;;;;;;4211940;28;20079;-58
2021/08/19 15:54:46;;;;;;;64.13;18.52;;;25.60;47.20;;;;;;4212104;28;20075;-58
2021/08/19 15:56:48;;;;;;;54.95;18.00;;;25.60;47.10;;;;;;4211598;28;20464;-58
2021/08/19 15:58:50;;;;;;;65.45;18.27;;;25.60;47.10;;;;;;4211618;28;20055;-58
2021/08/19 16:00:52;;;;;;;52.45;15.40;;;25.70;47.10;;;;;;4211387;28;20041;-58
2021/08/19 16:02:54;;;;;;;61.03;18.38;;;25.70;47.10;;;;;;4211763;28;20049;-58
2021/08/19 16:04:57;;;;;;;59.85;16.00;;;25.60;47.10;;;;;;4211025;28;20069;-58
2021/08/19 16:07:00;;;;;;;48.80;15.57;;;25.70;47.10;;;;;;4211531;28;20045;-58
2021/08/19 16:09:04;;;;;;;42.97;13.93;;;25.70;47.10;;;;;;4211581;28;20053;-59
2021/08/19 16:11:06;;;;;;;49.25;14.45;;;25.70;47.10;;;;;;4211484;28;20049;-60
2021/08/19 16:13:08;;;;;;;40.00;14.20;;;25.70;47.00;;;;;;4211541;28;20049;-58
2021/08/19 16:15:10;;;;;;;41.67;13.68;;;25.70;47.00;;;;;;4211503;28;20052;-58
2021/08/19 16:17:12;;;;;;;39.05;13.27;;;25.60;47.10;;;;;;4212111;28;20056;-57
2021/08/19 16:19:17;;;;;;;35.50;12.10;;;25.70;47.30;;;;;;4188184;28;20106;-55
2021/08/19 16:21:20;;;;;;;30.63;12.90;;;25.70;46.70;;;;;;4228920;28;20052;-56
2021/08/19 16:23:22;;;;;;;45.45;10.82;;;25.70;47.50;;;;;;4228675;28;20053;-59
2021/08/19 16:25:24;;;;;;;28.20;10.80;;;25.70;49.90;;;;;;4228186;28;20066;-56
2021/08/19 16:27:27;;;;;;;22.30;7.90;;;25.60;50.20;;;;;;4228558;28;20044;-56
2021/08/19 16:29:29;;;;;;;17.73;7.38;;;25.50;48.50;;;;;;4228408;28;20052;-58
2021/08/19 16:31:32;;;;;;;30.73;8.38;;;25.30;48.30;;;;;;4217051;28;20048;-56
2021/08/19 16:33:34;;;;;;;28.80;9.98;;;25.40;52.20;;;;;;4217478;28;20074;-57
2021/08/19 16:35:37;;;;;;;24.73;8.20;;;25.40;50.20;;;;;;4217130;28;20074;-56
2021/08/19 16:37:40;;;;;;;24.37;7.53;;;25.40;49.50;;;;;;4217060;28;20071;-47
2021/08/19 16:39:43;;;;;;;11.75;6.82;;;25.50;49.40;;;;;;4213476;28;20074;-49
2021/08/19 16:41:48;;;;;;;20.67;8.32;;;25.40;49.20;;;;;;4214496;28;20055;-47
2021/08/19 16:43:54;;;;;;;21.42;8.13;;;25.50;49.90;;;;;;3873090;28;10000235;-56
2021/08/19 16:45:56;;;;;;;27.77;8.68;;;25.60;51.20;;;;;;4231774;28;20066;-56
2021/08/19 16:47:58;;;;;;;15.38;7.15;;;25.60;50.70;;;;;;4231953;28;20047;-56
2021/08/19 16:50:00;;;;;;;18.15;7.90;;;25.70;50.50;;;;;;4231784;28;20073;-54
2021/08/19 16:52:05;;;;;;;17.73;7.35;;;25.70;50.90;;;;;;4231517;28;20058;-57
2021/08/19 16:54:07;;;;;;;16.23;6.30;;;25.70;50.60;;;;;;4231589;28;20101;-57
2021/08/19 16:56:09;;;;;;;14.77;6.70;;;25.70;51.30;;;;;;4231539;28;20044;-57
2021/08/19 16:58:11;;;;;;;9.77;5.85;;;25.80;50.50;;;;;;4231734;28;20134;-57
2021/08/19 17:00:14;;;;;;;10.57;6.00;;;25.70;49.80;;;;;;4231677;28;20062;-56
2021/08/19 17:02:16;;;;;;;13.52;6.78;;;25.70;50.30;;;;;;4231568;28;20044;-57
2021/08/19 17:04:19;;;;;;;11.93;6.75;;;25.80;50.30;;;;;;4231492;28;20116;-58
2021/08/19 17:06:21;;;;;;;16.77;6.45;;;25.80;50.30;;;;;;4231466;28;20093;-58
2021/08/19 17:08:26;;;;;;;12.80;6.50;;;25.80;50.30;;;;;;4231569;28;20040;-57
2021/08/19 17:10:28;;;;;;;16.83;6.88;;;25.80;50.50;;;;;;4232047;28;20048;-56
2021/08/19 17:12:30;;;;;;;9.40;5.95;;;25.80;49.80;;;;;;4233485;28;20074;-55
2021/08/19 17:14:33;;;;;;;20.67;6.40;;;25.80;49.90;;;;;;4232149;28;20036;-55
2021/08/19 17:16:35;;;;;;;13.73;5.97;;;25.80;49.50;;;;;;4232342;28;20044;-55
2021/08/19 17:18:37;;;;;;;13.05;6.60;;;25.80;50.00;;;;;;4231920;28;20085;-56
2021/08/19 17:20:41;;;;;;;12.82;6.55;;;25.80;50.10;;;;;;4232253;28;20485;-56
2021/08/19 17:22:43;;;;;;;15.48;6.65;;;25.80;50.10;;;;;;4231552;28;20040;-56
2021/08/19 17:24:45;;;;;;;9.43;6.13;;;25.80;50.20;;;;;;4231749;28;20048;-48
2021/08/19 17:26:47;;;;;;;9.75;6.20;;;25.80;50.10;;;;;;4232096;28;20048;-57
2021/08/19 17:28:50;;;;;;;11.27;6.80;;;25.80;50.20;;;;;;4231884;28;20052;-57
2021/08/19 17:30:52;;;;;;;9.98;6.40;;;25.80;50.20;;;;;;4231662;28;20459;-56
2021/08/19 17:32:54;;;;;;;10.88;6.72;;;25.80;50.20;;;;;;4231469;28;20055;-49
2021/08/19 17:34:57;;;;;;;14.13;6.63;;;25.80;49.90;;;;;;4231327;28;20070;-48
2021/08/19 17:36:59;;;;;;;19.83;7.50;;;25.80;49.50;;;;;;4231975;28;20051;-57
2021/08/19 17:39:01;;;;;;;15.68;6.57;;;25.80;50.40;;;;;;4231179;28;20153;-56
2021/08/19 17:41:03;;;;;;;18.42;7.03;;;25.80;50.50;;;;;;4231791;28;20101;-58
2021/08/19 17:43:06;;;;;;;24.25;8.48;;;25.80;49.50;;;;;;4229556;28;20039;-59
2021/08/19 17:45:08;;;;;;;22.65;7.15;;;25.80;49.10;;;;;;4230841;28;20483;-59
2021/08/19 17:47:10;;;;;;;16.65;7.15;;;25.80;49.70;;;;;;4230937;28;20109;-59
2021/08/19 17:49:12;;;;;;;16.23;6.70;;;25.70;50.20;;;;;;4230992;28;20050;-58
2021/08/19 17:51:14;;;;;;;12.93;7.07;;;25.70;50.00;;;;;;4230590;28;20051;-59
2021/08/19 17:53:16;;;;;;;25.00;8.63;;;25.70;50.10;;;;;;4230603;28;20048;-61
2021/08/19 17:55:22;;;;;;;19.33;6.63;;;25.70;49.80;;;;;;4230564;28;20052;-59
2021/08/19 17:57:24;;;;;;;12.73;6.72;;;25.70;50.20;;;;;;4230647;28;20131;-59
2021/08/19 17:59:26;;;;;;;16.63;7.00;;;25.60;50.00;;;;;;4230575;28;20044;-57
2021/08/19 18:01:28;;;;;;;9.63;6.60;;;25.60;50.10;;;;;;4213071;28;20053;-57
2021/08/19 18:03:31;;;;;;;10.98;6.82;;;25.60;50.20;;;;;;4230431;28;20074;-56
2021/08/19 18:05:35;;;;;;;10.35;7.13;;;25.60;50.00;;;;;;4230381;28;20048;-57
2021/08/19 18:07:38;;;;;;;12.98;6.85;;;25.60;50.00;;;;;;4230481;28;20058;-59
2021/08/19 18:09:40;;;;;;;15.25;6.97;;;25.60;50.20;;;;;;4230496;28;20530;-57
2021/08/19 18:11:42;;;;;;;11.45;6.28;;;25.60;50.00;;;;;;4230481;28;20103;-63
2021/08/19 18:13:46;;;;;;;13.90;6.70;;;25.60;50.00;;;;;;4230637;28;20044;-60
2021/08/19 18:15:48;;;;;;;10.73;6.78;;;25.60;50.10;;;;;;4230313;28;20044;-59
2021/08/19 18:17:51;;;;;;;11.95;7.18;;;25.60;50.10;;;;;;4230286;28;20043;-62
2021/08/19 18:19:53;;;;;;;10.68;6.60;;;25.60;50.10;;;;;;4229877;28;20044;-62
2021/08/19 18:21:56;;;;;;;15.27;6.93;;;25.60;50.00;;;;;;4230345;28;20087;-61
2021/08/19 18:23:58;;;;;;;11.73;7.25;;;25.60;50.00;;;;;;4230279;28;20040;-61
2021/08/19 18:26:00;;;;;;;20.33;6.95;;;25.60;49.90;;;;;;4230330;28;20047;-59
2021/08/19 18:28:02;;;;;;;18.75;7.90;;;25.60;49.90;;;;;;4230210;28;20129;-61
2021/08/19 18:30:06;;;;;;;9.73;6.78;;;25.50;49.80;;;;;;4230154;28;20074;-63
2021/08/19 18:32:08;;;;;;;14.10;7.37;;;25.50;49.90;;;;;;4230135;28;20052;-61
2021/08/19 18:34:10;;;;;;;11.48;6.90;;;25.50;49.80;;;;;;4230035;28;20339;-61
2021/08/19 18:36:12;;;;;;;9.77;5.97;;;25.50;49.90;;;;;;4229960;28;20078;-61
2021/08/19 18:38:14;;;;;;;14.57;7.13;;;25.50;50.10;;;;;;4230121;28;20044;-61
2021/08/19 18:40:17;;;;;;;15.25;6.43;;;25.50;49.70;;;;;;4230068;28;20044;-61
2021/08/19 18:42:19;;;;;;;12.77;6.65;;;25.50;49.90;;;;;;4231193;28;20056;-63
2021/08/19 18:44:21;;;;;;;10.00;7.10;;;25.50;49.80;;;;;;4230514;28;20044;-62
2021/08/19 18:46:23;;;;;;;9.68;6.43;;;25.50;49.70;;;;;;4230085;28;20501;-61
2021/08/19 18:48:25;;;;;;;15.23;6.60;;;25.50;49.70;;;;;;4230293;28;20078;-62
2021/08/19 18:50:27;;;;;;;11.27;6.75;;;25.50;49.80;;;;;;4230834;28;20048;-61
2021/08/19 18:52:29;;;;;;;9.63;6.68;;;25.50;49.70;;;;;;4229871;28;20056;-61
2021/08/19 18:54:31;;;;;;;11.50;7.15;;;25.50;49.70;;;;;;4230607;28;20051;-60
2021/08/19 18:56:33;;;;;;;11.65;6.85;;;25.50;49.60;;;;;;4231005;28;20048;-59
2021/08/19 18:58:35;;;;;;;9.40;6.65;;;25.50;49.20;;;;;;4230933;28;20073;-61
2021/08/19 19:00:39;;;;;;;9.88;7.22;;;25.50;49.70;;;;;;4230177;28;20054;-61